Time;durP1;ratioP1;P1;durP2;ratioP2;P2;SDS_P1;SDS_P2;PMS_P1;PMS_P2;Temp;Humidity;BMP_temperature;BMP_pressure;BME280_temperature;BME280_humidity;BME280_pressure;Samples;Min_cycle;Max_cycle;Signal;HPM_P1;HPM_P2
2022/09/18 00:01:44;;;;;;;3.22;2.00;;;;;;;13.04;74.37;100383.16;5001266;28;20064;-82
2022/09/18 00:04:29;;;;;;;6.20;2.13;;;;;;;13.07;74.61;100388.72;4998978;28;20409;-82
2022/09/18 00:07:14;;;;;;;1.90;1.77;;;;;;;13.13;74.52;100386.59;4996691;28;20057;-80
2022/09/18 00:09:59;;;;;;;3.08;2.35;;;;;;;13.16;74.21;100386.72;4996727;28;20058;-82
2022/09/18 00:12:44;;;;;;;2.67;1.75;;;;;;;13.06;74.42;100386.31;5016551;28;20057;-82
2022/09/18 00:15:29;;;;;;;4.53;2.75;;;;;;;13.06;74.79;100386.31;5016167;28;20045;-82
2022/09/18 00:18:13;;;;;;;2.67;2.30;;;;;;;13.21;74.14;100393.88;5020498;28;20052;-81
2022/09/18 00:21:11;;;;;;;5.20;2.83;;;;;;;13.26;74.08;100391.72;5010486;28;20053;-81
2022/09/18 00:23:59;;;;;;;3.38;2.88;;;;;;;13.14;73.73;100388.22;4996501;28;20049;-82
2022/09/18 00:26:46;;;;;;;5.68;3.10;;;;;;;12.91;74.19;100379.59;5002273;28;20053;-81
2022/09/18 00:29:30;;;;;;;6.25;3.17;;;;;;;12.77;75.08;100385.38;4996207;28;20520;-81
2022/09/18 00:32:15;;;;;;;2.90;2.10;;;;;;;12.75;75.29;100378.66;5009012;28;20516;-82
2022/09/18 00:35:00;;;;;;;4.82;2.28;;;;;;;12.32;77.28;100369.00;5016493;28;20107;-82
2022/09/18 00:37:45;;;;;;;3.03;2.45;;;;;;;12.19;78.17;100370.06;5016189;28;20053;-82
2022/09/18 00:40:30;;;;;;;;;;;;;;;12.00;78.84;100380.66;5016146;28;20413;-81
2022/09/18 00:43:16;;;;;;;4.95;3.28;;;;;;;11.76;79.70;100388.69;4999453;28;19914;-82
2022/09/18 00:46:20;;;;;;;6.03;3.15;;;;;;;12.42;77.88;100395.03;4998915;28;20409;-82
2022/09/18 00:49:19;;;;;;;4.75;3.67;;;;;;;12.37;76.58;100387.06;4997861;28;20049;-83
2022/09/18 00:52:05;;;;;;;7.65;3.33;;;;;;;11.55;79.71;100397.59;5004763;28;20401;-80
2022/09/18 00:54:58;;;;;;;6.03;4.55;;;;;;;11.87;79.36;100396.16;5018421;28;20429;-82
2022/09/18 00:57:48;;;;;;;6.93;4.95;;;;;;;12.36;77.65;100399.91;5020688;28;20049;-82
2022/09/18 01:00:33;;;;;;;5.60;3.45;;;;;;;12.49;76.26;100394.50;5018044;28;20405;-82
2022/09/18 01:03:18;;;;;;;;;;;;;;;12.32;75.92;100390.00;5003476;28;20660;-82
2022/09/18 01:06:30;;;;;;;4.72;3.00;;;;;;;12.48;74.72;100398.38;4996012;28;19921;-81
2022/09/18 01:09:47;;;;;;;4.43;2.75;;;;;;;11.19;78.75;100399.22;4997776;28;20045;-81
2022/09/18 01:12:44;;;;;;;3.17;2.88;;;;;;;11.28;80.99;100397.25;5000689;28;20045;-82
2022/09/18 01:15:33;;;;;;;4.38;3.10;;;;;;;11.42;79.49;100397.84;5016057;28;20053;-82
2022/09/18 01:18:41;;;;;;;2.60;1.98;;;;;;;11.71;78.46;100406.00;5014121;28;20057;-81
2022/09/18 01:21:28;;;;;;;8.40;3.08;;;;;;;11.79;77.18;100399.72;5016768;28;20129;-82
2022/09/18 01:24:33;;;;;;;3.63;2.53;;;;;;;11.42;77.56;100408.72;4999058;28;20050;-80
2022/09/18 01:27:34;;;;;;;4.22;2.30;;;;;;;11.40;79.06;100408.25;4995362;28;20057;-82
2022/09/18 01:30:19;;;;;;;2.22;1.70;;;;;;;11.82;76.93;100399.06;4994967;28;20045;-82
2022/09/18 01:33:09;;;;;;;4.68;2.00;;;;;;;11.32;78.87;100406.38;5003123;28;20044;-81
2022/09/18 01:35:59;;;;;;;4.50;2.28;;;;;;;11.47;78.53;100409.34;5015763;28;20049;-82
2022/09/18 01:38:51;;;;;;;4.75;1.92;;;;;;;11.51;78.20;100412.19;5013907;28;20524;-81
2022/09/18 01:41:39;;;;;;;5.88;2.00;;;;;;;11.61;77.76;100408.28;5015557;28;20045;-81
2022/09/18 01:44:28;;;;;;;5.88;1.75;;;;;;;11.51;76.67;100399.38;5004666;28;20069;-80
2022/09/18 01:47:20;;;;;;;6.13;1.90;;;;;;;11.86;74.87;100408.16;4994204;28;20053;-82
2022/09/18 01:50:06;;;;;;;6.95;1.45;;;;;;;11.73;74.36;100406.50;4993704;28;20069;-81
2022/09/18 01:53:20;;;;;;;8.13;1.58;;;;;;;11.14;75.74;100401.00;4994521;28;20516;-81
2022/09/18 01:56:12;;;;;;;2.25;1.58;;;;;;;10.77;77.32;100407.19;5016820;28;20076;-81
2022/09/18 01:59:03;;;;;;;5.20;2.30;;;;;;;10.97;77.44;100411.94;5013068;28;20508;-81
2022/09/18 02:02:11;;;;;;;3.95;2.63;;;;;;;11.31;75.87;100415.66;5013440;28;20045;-82
2022/09/18 02:04:59;;;;;;;5.93;2.20;;;;;;;11.78;73.87;100414.47;5002400;28;20045;-80
2022/09/18 02:08:09;;;;;;;4.97;1.70;;;;;;;12.11;72.85;100419.19;4993181;28;20061;-79
2022/09/18 02:11:01;;;;;;;1.75;1.40;;;;;;;12.26;71.56;100422.13;4993582;28;20042;-79
2022/09/18 02:14:04;;;;;;;2.50;1.45;;;;;;;12.24;71.33;100426.34;4993350;28;20053;-81
2022/09/18 02:17:17;;;;;;;1.95;1.50;;;;;;;12.16;71.32;100425.25;4977991;28;20426;-79
2022/09/18 02:20:09;;;;;;;3.38;1.88;;;;;;;11.95;71.46;100425.25;4973495;28;20509;-81
2022/09/18 02:23:01;;;;;;;3.58;1.58;;;;;;;10.85;75.97;100411.81;4972552;28;20049;-80
2022/09/18 02:25:56;;;;;;;3.75;1.30;;;;;;;10.52;78.19;100416.19;4998575;28;20417;-81
2022/09/18 02:28:43;;;;;;;1.52;1.17;;;;;;;11.04;76.52;100419.59;5012371;28;20053;-79
2022/09/18 02:31:28;;;;;;;2.28;1.30;;;;;;;11.46;74.11;100428.72;5015044;28;20052;-81
2022/09/18 02:34:13;;;;;;;1.40;0.88;;;;;;;11.66;73.39;100430.69;5012528;28;20402;-81
2022/09/18 02:37:26;;;;;;;1.70;1.50;;;;;;;11.68;72.64;100435.81;4993741;28;20049;-80
2022/09/18 02:40:31;;;;;;;1.90;1.52;;;;;;;10.86;76.04;100423.50;4995380;28;20061;-79
2022/09/18 02:43:41;;;;;;;1.10;1.00;;;;;;;10.90;75.31;100417.09;4992675;28;20409;-81
2022/09/18 02:46:41;;;;;;;1.92;1.30;;;;;;;11.05;74.80;100426.66;5003506;28;20425;-81
2022/09/18 02:49:53;;;;;;;3.25;1.10;;;;;;;11.05;73.71;100419.28;5012142;28;20068;-80
2022/09/18 02:53:01;;;;;;;31.75;2.00;;;;;;;11.30;72.39;100419.50;5011186;28;20049;-80
2022/09/18 02:55:51;;;;;;;1.30;1.00;;;;;;;10.81;75.11;100435.34;5009029;28;20436;-80
2022/09/18 02:58:50;;;;;;;3.35;0.82;;;;;;;10.79;75.75;100425.91;4996238;28;20049;-81
2022/09/18 03:01:40;;;;;;;9.77;0.85;;;;;;;10.85;74.90;100419.97;4993660;28;20512;-80
2022/09/18 03:04:27;;;;;;;0.93;0.50;;;;;;;11.10;74.23;100427.28;4991992;28;20041;-81
2022/09/18 03:07:19;;;;;;;2.63;0.90;;;;;;;11.44;73.15;100420.88;5004123;28;20061;-81
2022/09/18 03:10:07;;;;;;;1.85;0.70;;;;;;;11.65;72.14;100426.38;5012405;28;20567;-80
2022/09/18 03:12:52;;;;;;;0.93;0.52;;;;;;;11.69;72.27;100424.56;5011547;28;20052;-81
2022/09/18 03:15:37;;;;;;;6.03;0.80;;;;;;;11.10;73.30;100427.28;5011668;28;20049;-81
2022/09/18 03:18:22;;;;;;;4.85;0.50;;;;;;;11.12;73.90;100425.00;4993184;28;20421;-80
2022/09/18 03:21:07;;;;;;;2.13;0.75;;;;;;;10.94;75.39;100439.78;4988527;28;20057;-81
2022/09/18 03:23:51;;;;;;;1.53;1.03;;;;;;;10.93;73.86;100438.19;5013171;23;20066;-81
2022/09/18 03:26:41;;;;;;;1.05;0.70;;;;;;;11.30;73.46;100435.84;4995316;28;20053;-81
2022/09/18 03:29:27;;;;;;;0.93;0.60;;;;;;;11.26;73.46;100443.88;5003923;28;20416;-81
2022/09/18 03:32:13;;;;;;;0.85;0.65;;;;;;;10.84;73.86;100440.13;5034331;28;20049;-81
2022/09/18 03:35:04;;;;;;;0.77;0.63;;;;;;;10.96;74.24;100440.28;5018108;28;20057;-81
2022/09/18 03:37:50;;;;;;;7.13;1.00;;;;;;;10.75;74.10;100444.00;5010087;28;20524;-79
2022/09/18 03:40:42;;;;;;;2.38;0.77;;;;;;;10.95;73.63;100446.84;4999618;28;20054;-79
2022/09/18 03:43:27;;;;;;;3.47;0.90;;;;;;;10.89;71.98;100456.28;4999150;28;20508;-81
2022/09/18 03:46:12;;;;;;;0.65;0.45;;;;;;;10.70;72.39;100469.44;4998959;28;20057;-81
2022/09/18 03:48:57;;;;;;;;;;;;;;;10.58;73.34;100459.22;4998844;28;20532;-80
2022/09/18 03:51:45;;;;;;;0.80;0.77;;;;;;;10.28;75.11;100460.19;4999805;28;19914;-81
2022/09/18 03:54:31;;;;;;;3.38;0.73;;;;;;;10.92;73.28;100461.06;4999581;28;20049;-81
2022/09/18 03:57:32;;;;;;;3.13;0.73;;;;;;;11.05;72.30;100459.28;4999322;28;20057;-81
2022/09/18 04:00:42;;;;;;;3.15;0.73;;;;;;;11.11;72.07;100456.09;4976572;28;20050;-81
2022/09/18 04:03:36;;;;;;;2.40;1.13;;;;;;;11.05;71.88;100459.28;4975943;28;20054;-81
2022/09/18 04:06:40;;;;;;;3.28;0.95;;;;;;;10.57;73.63;100462.25;4988592;28;20050;-81
2022/09/18 04:09:45;;;;;;;1.63;0.70;;;;;;;9.95;75.37;100462.53;4998306;28;20049;-81
2022/09/18 04:12:30;;;;;;;4.55;0.80;;;;;;;10.14;74.48;100460.31;4996755;28;20049;-81
2022/09/18 04:15:26;;;;;;;1.63;0.70;;;;;;;9.89;75.08;100471.94;5000143;28;20520;-81
2022/09/18 04:18:11;;;;;;;0.80;0.65;;;;;;;9.12;78.56;100469.72;5001512;28;20053;-81
2022/09/18 04:20:56;;;;;;;;;;;;;;;10.08;76.54;100468.91;5002558;28;20057;-81
2022/09/18 04:23:40;;;;;;;0.82;0.82;;;;;;;10.15;75.12;100472.78;5017482;28;19919;-81
2022/09/18 04:26:25;;;;;;;1.42;0.98;;;;;;;9.54;77.56;100479.19;5018707;28;20049;-81
2022/09/18 04:29:14;;;;;;;4.65;0.60;;;;;;;9.66;78.01;100497.56;4978048;28;20417;-81
2022/09/18 04:31:58;;;;;;;0.55;0.45;;;;;;;9.55;77.96;100496.28;4992747;28;20061;-81
2022/09/18 04:34:44;;;;;;;0.90;0.63;;;;;;;9.36;78.78;100493.78;5005292;28;20062;-81
2022/09/18 04:37:30;;;;;;;1.63;0.90;;;;;;;9.59;78.64;100497.25;4982583;28;20069;-81
2022/09/18 04:40:17;;;;;;;4.20;1.98;;;;;;;10.20;76.26;100499.03;4997133;28;20090;-81
2022/09/18 04:43:05;;;;;;;1.20;0.80;;;;;;;9.97;75.81;100492.06;5000631;28;20064;-81
2022/09/18 04:45:50;;;;;;;1.15;0.60;;;;;;;9.86;75.66;100495.06;5001553;28;20433;-81
2022/09/18 04:48:35;;;;;;;4.38;0.90;;;;;;;10.09;74.50;100498.50;5000029;28;20050;-81
2022/09/18 04:51:22;;;;;;;1.63;0.93;;;;;;;9.26;77.96;100494.84;4995903;28;20053;-81
2022/09/18 04:54:08;;;;;;;1.45;0.82;;;;;;;9.61;78.41;100500.41;4997029;28;20049;-81
2022/09/18 04:56:55;;;;;;;2.88;0.80;;;;;;;10.41;75.27;100493.78;5002783;28;20045;-81
2022/09/18 04:59:40;;;;;;;4.18;1.13;;;;;;;10.56;73.61;100501.44;5004252;28;20516;-80
2022/09/18 05:02:25;;;;;;;3.70;0.70;;;;;;;10.81;72.87;100505.28;4977527;28;20046;-80
2022/09/18 05:05:11;;;;;;;0.77;0.77;;;;;;;10.71;72.48;100501.78;4995296;28;20693;-80
2022/09/18 05:08:01;;;;;;;0.73;0.57;;;;;;;9.86;75.25;100499.72;4985542;28;20050;-79
2022/09/18 05:10:47;;;;;;;0.65;0.55;;;;;;;10.00;74.92;100518.63;4997899;28;20057;-80
2022/09/18 05:13:32;;;;;;;5.22;0.60;;;;;;;10.22;72.73;100513.88;4993916;28;20045;-80
2022/09/18 05:16:26;;;;;;;7.78;0.50;;;;;;;10.01;73.41;100515.56;5003456;28;20508;-80
2022/09/18 05:19:34;;;;;;;4.05;0.80;;;;;;;10.27;74.04;100521.09;5007381;28;20050;-81
2022/09/18 05:22:25;;;;;;;3.60;0.90;;;;;;;10.55;71.62;100522.41;4977005;28;20054;-81
2022/09/18 05:25:10;;;;;;;0.60;0.52;;;;;;;10.58;71.80;100523.66;4977281;28;20434;-81
2022/09/18 05:27:57;;;;;;;0.88;0.65;;;;;;;10.43;72.77;100518.69;4982599;28;20512;-80
2022/09/18 05:30:44;;;;;;;2.20;0.60;;;;;;;10.00;75.94;100533.00;4996751;28;20049;-81
2022/09/18 05:33:29;;;;;;;0.32;0.30;;;;;;;13.74;63.15;100526.75;5024588;28;20053;-81
2022/09/18 05:36:14;;;;;;;1.10;0.68;;;;;;;15.90;54.73;100535.69;4997821;28;20054;-82
2022/09/18 05:38:59;;;;;;;0.82;0.50;;;;;;;17.77;50.12;100538.81;4999684;28;20053;-81
2022/09/18 05:41:49;;;;;;;2.08;0.60;;;;;;;21.07;41.79;100540.19;4998665;28;20053;-82
2022/09/18 05:44:34;;;;;;;4.05;1.00;;;;;;;22.15;38.36;100548.25;4998194;28;20050;-82
2022/09/18 05:47:27;;;;;;;0.73;0.50;;;;;;;23.52;35.30;100559.28;5001818;28;20114;-82
2022/09/18 05:50:11;;;;;;;4.47;0.73;;;;;;;23.52;36.09;100560.03;4999180;28;20212;-81
2022/09/18 05:53:02;;;;;;;2.60;0.63;;;;;;;24.29;34.33;100560.63;5011092;28;20052;-81
2022/09/18 05:55:57;;;;;;;3.85;0.75;;;;;;;27.96;28.76;100569.47;5008069;28;20413;-82
2022/09/18 05:58:42;;;;;;;4.68;0.52;;;;;;;28.88;26.70;100583.06;5012955;28;20052;-81
2022/09/18 06:01:29;;;;;;;0.52;0.43;;;;;;;28.86;26.92;100580.69;5015215;28;20065;-81
2022/09/18 06:04:30;;;;;;;4.38;0.77;;;;;;;29.49;26.13;100585.66;5019210;28;20056;-81
2022/09/18 06:07:22;;;;;;;5.35;0.95;;;;;;;31.51;23.95;100595.41;5025684;28;20036;-81
2022/09/18 06:10:08;;;;;;;7.63;1.27;;;;;;;30.06;25.79;100598.66;5017772;28;20100;-81
2022/09/18 06:13:02;;;;;;;4.38;1.50;;;;;;;31.98;23.31;100595.13;5005978;28;20061;-82
2022/09/18 06:15:49;;;;;;;3.65;0.80;;;;;;;32.90;22.44;100598.81;5006713;28;20046;-81
2022/09/18 06:18:38;;;;;;;9.93;1.42;;;;;;;34.05;20.67;100604.22;5003911;28;20049;-82
2022/09/18 06:21:23;;;;;;;5.15;1.42;;;;;;;32.87;21.43;100605.38;5025287;28;20049;-82
2022/09/18 06:24:08;;;;;;;3.75;0.80;;;;;;;28.77;26.71;100593.78;5004071;28;20057;-76
2022/09/18 06:27:04;;;;;;;5.57;1.25;;;;;;;29.79;25.67;100595.50;4994691;28;20041;-76
2022/09/18 06:29:49;;;;;;;2.17;1.00;;;;;;;30.61;24.83;100595.59;4991794;28;20060;-76
2022/09/18 06:32:44;;;;;;;4.65;0.93;;;;;;;31.89;22.40;100595.09;4992332;28;20057;-76
2022/09/18 06:35:28;;;;;;;;;;;;;;;32.35;21.55;100610.06;4975319;28;20054;-76
2022/09/18 06:38:14;;;;;;;3.05;0.82;;;;;;;33.84;20.95;100606.84;4972628;28;19914;-76
2022/09/18 06:41:04;;;;;;;1.48;0.95;;;;;;;29.14;26.01;100600.72;4981483;28;20429;-76
2022/09/18 06:44:04;;;;;;;5.00;0.90;;;;;;;32.15;21.79;100598.47;4991698;28;20061;-76
2022/09/18 06:47:01;;;;;;;2.08;1.00;;;;;;;34.63;18.63;100593.16;4992354;28;20049;-76
2022/09/18 06:49:55;;;;;;;1.40;0.60;;;;;;;33.25;19.42;100607.69;4994409;28;20165;-76
2022/09/18 06:52:40;;;;;;;1.48;1.05;;;;;;;32.46;20.00;100592.72;4992198;28;20057;-77
2022/09/18 06:55:25;;;;;;;1.55;0.90;;;;;;;35.87;16.33;100599.66;4991455;28;20053;-76
2022/09/18 06:58:11;;;;;;;1.70;1.10;;;;;;;35.91;16.66;100600.28;4992043;28;20409;-77
2022/09/18 07:00:59;;;;;;;3.92;0.90;;;;;;;33.97;19.62;100611.50;4986145;28;20057;-77
2022/09/18 07:03:51;;;;;;;9.85;1.55;;;;;;;33.76;18.30;100608.47;5001346;28;20058;-77
2022/09/18 07:06:42;;;;;;;7.15;0.95;;;;;;;36.43;17.40;100621.81;4976425;28;20521;-76
2022/09/18 07:09:28;;;;;;;1.60;1.10;;;;;;;35.08;16.78;100619.44;4976260;28;20054;-76
2022/09/18 07:12:29;;;;;;;2.90;1.25;;;;;;;36.38;15.89;100625.38;4976593;28;20050;-76
2022/09/18 07:15:15;;;;;;;3.97;1.05;;;;;;;39.01;14.80;100625.31;4983765;28;20061;-76
2022/09/18 07:18:02;;;;;;;3.47;1.10;;;;;;;38.91;14.53;100631.22;4992087;28;20451;-76
2022/09/18 07:20:47;;;;;;;5.68;1.20;;;;;;;38.69;15.00;100636.84;5000465;28;20524;-77
2022/09/18 07:23:42;;;;;;;3.83;0.80;;;;;;;38.17;15.67;100629.88;5004598;28;20056;-77
2022/09/18 07:26:27;;;;;;;3.65;1.55;;;;;;;37.25;15.91;100634.59;4997444;28;20049;-75
2022/09/18 07:29:12;;;;;;;16.92;1.50;;;;;;;35.88;17.15;100635.22;5002633;28;20045;-77
2022/09/18 07:31:58;;;;;;;3.75;1.63;;;;;;;36.54;16.42;100634.56;4996807;28;20073;-78
2022/09/18 07:34:43;;;;;;;4.65;1.38;;;;;;;38.78;14.55;100636.59;4991707;28;20042;-79
2022/09/18 07:37:32;;;;;;;1.98;0.93;;;;;;;36.35;16.25;100628.44;4993998;28;20049;-77
2022/09/18 07:40:32;;;;;;;2.00;1.17;;;;;;;39.31;13.90;100635.69;4988555;28;20405;-77
2022/09/18 07:43:25;;;;;;;2.15;1.20;;;;;;;38.33;14.02;100637.72;4986745;28;20050;-79
2022/09/18 07:46:12;;;;;;;13.68;1.73;;;;;;;38.15;15.86;100630.38;4991050;28;20520;-78
2022/09/18 07:48:57;;;;;;;47.80;10.52;;;;;;;38.02;15.07;100639.38;4989957;28;20045;-79
2022/09/18 07:51:47;;;;;;;2.10;1.60;;;;;;;39.39;13.28;100635.19;4998495;28;20039;-79
2022/09/18 07:54:34;;;;;;;3.20;1.90;;;;;;;39.04;15.02;100644.97;5016757;28;20054;-79
2022/09/18 07:57:22;;;;;;;5.07;1.25;;;;;;;39.22;14.96;100649.38;5018906;28;20045;-78
2022/09/18 08:00:32;;;;;;;6.45;2.10;;;;;;;38.72;14.40;100660.63;4999207;28;20069;-79
2022/09/18 08:03:18;;;;;;;3.33;1.73;;;;;;;40.05;13.86;100652.22;4999592;28;20437;-81
2022/09/18 08:06:27;;;;;;;7.25;2.30;;;;;;;38.23;15.14;100650.59;4990420;28;20045;-80
2022/09/18 08:09:32;;;;;;;3.53;1.70;;;;;;;37.39;15.83;100649.16;4998607;28;20048;-79
2022/09/18 08:12:35;;;;;;;6.47;2.00;;;;;;;36.43;16.75;100657.88;4999904;28;20057;-79
2022/09/18 08:15:31;;;;;;;4.45;1.48;;;;;;;37.55;16.09;100663.53;4997219;28;20042;-79
2022/09/18 08:18:30;;;;;;;3.58;2.00;;;;;;;36.93;16.66;100660.56;4997222;28;20049;-79
2022/09/18 08:21:29;;;;;;;8.77;1.92;;;;;;;37.43;16.01;100664.69;4995187;28;20057;-79
2022/09/18 08:24:16;;;;;;;4.53;1.52;;;;;;;40.25;13.97;100673.94;4998340;28;20053;-80
2022/09/18 08:27:03;;;;;;;4.40;1.95;;;;;;;38.04;15.15;100667.28;4996293;28;20044;-80
2022/09/18 08:29:49;;;;;;;1.98;1.63;;;;;;;39.63;14.71;100661.06;4988889;28;20046;-80
2022/09/18 08:32:34;;;;;;;5.30;2.10;;;;;;;39.10;14.50;100674.22;5023294;28;20046;-80
2022/09/18 08:35:20;;;;;;;3.42;2.00;;;;;;;40.45;13.74;100678.53;4998744;28;20045;-80
2022/09/18 08:38:06;;;;;;;6.93;1.90;;;;;;;38.81;15.31;100683.91;4995770;28;20046;-79
2022/09/18 08:41:30;;;;;;;5.88;2.70;;;;;;;38.00;16.52;100681.69;4991454;28;20045;-78
2022/09/18 08:44:28;;;;;;;5.22;1.90;;;;;;;32.77;21.63;100663.78;4983767;28;20049;-79
2022/09/18 08:47:26;;;;;;;3.97;1.95;;;;;;;30.66;24.25;100665.97;5009557;28;20436;-79
2022/09/18 08:50:23;;;;;;;6.97;1.65;;;;;;;27.90;29.74;100676.66;5012960;28;20398;-80
2022/09/18 08:53:19;;;;;;;5.53;1.60;;;;;;;27.83;30.50;100669.25;5002283;28;20050;-81
2022/09/18 08:56:24;;;;;;;4.93;1.58;;;;;;;26.22;32.43;100667.16;5002254;28;20046;-79
2022/09/18 08:59:50;;;;;;;4.13;1.60;;;;;;;25.09;34.49;100663.88;5006510;28;20532;-79
2022/09/18 09:02:40;;;;;;;3.05;1.33;;;;;;;24.79;33.57;100654.69;5033412;28;20042;-79
2022/09/18 09:05:41;;;;;;;4.72;1.80;;;;;;;23.39;37.67;100672.72;5025204;28;20511;-79
2022/09/18 09:08:56;;;;;;;4.72;2.20;;;;;;;23.68;35.78;100674.19;4996295;28;20050;-79
2022/09/18 09:12:21;;;;;;;16.88;2.80;;;;;;;22.61;38.22;100676.44;4983297;28;20421;-79
2022/09/18 09:15:36;;;;;;;4.50;1.48;;;;;;;22.72;37.50;100665.38;4983802;28;20398;-79
2022/09/18 09:18:29;;;;;;;3.97;1.65;;;;;;;22.01;38.08;100665.38;5004435;28;20053;-79
2022/09/18 09:21:26;;;;;;;6.80;1.30;;;;;;;22.51;38.35;100663.41;5029691;28;20045;-79
2022/09/18 09:24:16;;;;;;;4.18;1.35;;;;;;;22.47;37.27;100661.81;5035507;23;20413;-77
2022/09/18 09:27:34;;;;;;;3.08;1.50;;;;;;;22.50;39.30;100663.81;5021038;28;20057;-77
2022/09/18 09:30:40;;;;;;;2.72;0.95;;;;;;;22.46;39.83;100657.47;5013932;28;20056;-78
2022/09/18 09:33:51;;;;;;;3.90;1.65;;;;;;;22.25;40.59;100652.72;5013741;28;20045;-76
2022/09/18 09:36:49;;;;;;;1.30;0.88;;;;;;;22.54;39.73;100662.63;5015625;28;20053;-77
2022/09/18 09:39:38;;;;;;;2.03;0.90;;;;;;;22.72;39.73;100659.84;5012885;28;20520;-77
2022/09/18 09:42:37;;;;;;;6.88;1.50;;;;;;;22.08;38.70;100646.00;5031442;28;20111;-77
2022/09/18 09:45:32;;;;;;;3.28;1.40;;;;;;;22.02;40.03;100653.09;5026533;28;20040;-77
2022/09/18 09:48:26;;;;;;;6.60;1.70;;;;;;;22.02;38.65;100638.47;5023759;28;20056;-77
2022/09/18 09:51:40;;;;;;;2.03;1.27;;;;;;;22.26;38.59;100645.97;5032551;28;20041;-76
2022/09/18 09:54:24;;;;;;;5.05;1.30;;;;;;;22.24;38.81;100644.81;5032987;28;20115;-79
2022/09/18 09:57:23;;;;;;;4.97;1.90;;;;;;;22.60;37.98;100647.13;5032624;28;20416;-77
2022/09/18 10:00:18;;;;;;;5.15;1.05;;;;;;;22.57;37.55;100652.69;5030464;28;20048;-77
2022/09/18 10:03:44;;;;;;;1.70;0.77;;;;;;;23.01;37.21;100639.16;5032483;28;20052;-77
2022/09/18 10:06:55;;;;;;;3.60;0.80;;;;;;;22.68;38.29;100642.38;5033027;28;20040;-77
2022/09/18 10:10:02;;;;;;;9.00;1.50;;;;;;;22.46;38.08;100635.28;5027450;28;20052;-77
2022/09/18 10:12:53;;;;;;;1.45;0.68;;;;;;;22.80;38.49;100632.91;5028513;28;20052;-77
2022/09/18 10:15:44;;;;;;;30.30;2.75;;;;;;;22.03;35.62;100634.53;5028070;28;20040;-78
2022/09/18 10:18:38;;;;;;;3.47;1.15;;;;;;;22.17;36.70;100635.31;5025802;28;20052;-79
2022/09/18 10:21:27;;;;;;;8.82;1.70;;;;;;;21.86;37.33;100633.28;5029960;28;20048;-78
2022/09/18 10:24:39;;;;;;;1.60;0.70;;;;;;;22.24;38.47;100628.19;5035081;28;20436;-78
2022/09/18 10:27:27;;;;;;;2.80;1.27;;;;;;;22.74;38.54;100623.41;5029567;28;20068;-78
2022/09/18 10:30:12;;;;;;;1.75;1.13;;;;;;;22.36;38.65;100630.53;5031921;28;20275;-78
2022/09/18 10:33:35;;;;;;;2.97;1.23;;;;;;;22.67;39.07;100634.47;5026859;28;21585;-79
2022/09/18 10:36:34;;;;;;;1.05;0.60;;;;;;;22.72;39.63;100621.03;5025316;28;20652;-78
2022/09/18 10:39:30;;;;;;;3.88;1.13;;;;;;;22.97;40.65;100627.28;5033545;28;20519;-78
2022/09/18 10:42:22;;;;;;;2.08;0.70;;;;;;;22.82;40.96;100622.19;5030367;28;20424;-78
2022/09/18 10:45:36;;;;;;;1.85;1.10;;;;;;;22.44;37.08;100624.63;5035851;28;20160;-78
2022/09/18 10:48:43;;;;;;;1.65;1.02;;;;;;;22.36;36.50;100620.25;5038136;28;20052;-77
2022/09/18 10:51:28;;;;;;;0.75;0.60;;;;;;;22.36;35.71;100620.25;5034159;28;20057;-79
2022/09/18 10:54:23;;;;;;;1.52;0.65;;;;;;;22.82;39.20;100611.88;5032295;28;20527;-78
2022/09/18 10:57:31;;;;;;;1.20;0.40;;;;;;;22.97;35.38;100620.94;5018894;28;20056;-78
2022/09/18 11:00:19;;;;;;;3.25;0.47;;;;;;;23.11;36.09;100617.34;5014746;28;20052;-78
2022/09/18 11:03:33;;;;;;;3.13;1.35;;;;;;;23.22;38.62;100621.63;5013584;28;20049;-76
2022/09/18 11:06:24;;;;;;;0.57;0.40;;;;;;;23.10;32.84;100612.97;5032142;28;20044;-79
2022/09/18 11:09:15;;;;;;;0.90;0.35;;;;;;;23.30;37.06;100623.19;5026572;28;20045;-78
2022/09/18 11:12:02;;;;;;;1.13;0.17;;;;;;;23.20;36.27;100618.50;5026779;28;20404;-77
2022/09/18 11:15:01;;;;;;;1.35;0.20;;;;;;;22.94;37.88;100619.78;5029483;28;20041;-78
2022/09/18 11:17:52;;;;;;;0.17;0.10;;;;;;;22.92;37.20;100613.81;5034189;28;20515;-77
2022/09/18 11:20:42;;;;;;;3.97;0.82;;;;;;;22.97;37.15;100612.63;5037399;28;20049;-78
2022/09/18 11:23:34;;;;;;;0.40;0.35;;;;;;;23.12;36.64;100607.81;5033448;28;20041;-78
2022/09/18 11:26:27;;;;;;;0.80;0.20;;;;;;;23.15;36.64;100607.00;5033920;28;20049;-78
2022/09/18 11:29:29;;;;;;;0.40;0.28;;;;;;;22.93;36.52;100598.78;5031387;28;20428;-78
2022/09/18 11:32:24;;;;;;;0.40;0.28;;;;;;;23.10;35.85;100601.88;5033450;28;20036;-78
2022/09/18 11:35:15;;;;;;;0.20;0.20;;;;;;;23.13;36.06;100598.28;5032100;28;20040;-78
2022/09/18 11:38:06;;;;;;;0.52;0.20;;;;;;;23.19;35.83;100593.91;5029065;28;20052;-78
2022/09/18 11:40:57;;;;;;;0.13;0.13;;;;;;;22.98;36.21;100590.03;5031862;28;20064;-79
2022/09/18 11:43:58;;;;;;;0.05;0.05;;;;;;;23.13;34.35;100593.53;5033697;28;20045;-78
2022/09/18 11:47:21;;;;;;;0.30;0.10;;;;;;;23.49;35.33;100598.94;5030373;28;20037;-77
2022/09/18 11:50:22;;;;;;;0.10;0.10;;;;;;;23.33;35.36;100582.72;5030084;28;20053;-77
2022/09/18 11:53:22;;;;;;;0.20;0.10;;;;;;;23.30;35.76;100584.34;5034496;28;20079;-79
2022/09/18 11:56:17;;;;;;;0.47;0.25;;;;;;;23.41;35.44;100584.28;5034340;28;20039;-78
2022/09/18 11:59:23;;;;;;;1.60;0.30;;;;;;;23.27;36.23;100584.34;5015615;28;20057;-78
2022/09/18 12:02:24;;;;;;;1.88;0.50;;;;;;;23.14;36.64;100575.69;5019379;28;20044;-77
2022/09/18 12:05:37;;;;;;;3.45;0.70;;;;;;;23.28;36.64;100572.06;5035754;28;20045;-78
2022/09/18 12:08:48;;;;;;;7.00;1.00;;;;;;;23.15;36.80;100568.19;5036572;28;20048;-78
2022/09/18 12:11:43;;;;;;;6.22;1.27;;;;;;;23.15;36.90;100571.75;5031621;28;20053;-78
2022/09/18 12:14:38;;;;;;;6.07;1.00;;;;;;;23.04;37.10;100565.44;5017214;28;20612;-77
2022/09/18 12:17:41;;;;;;;2.97;0.73;;;;;;;23.24;34.56;100569.31;5033467;28;20070;-78
2022/09/18 12:20:32;;;;;;;3.50;0.70;;;;;;;23.12;37.46;100563.41;5032496;28;20044;-77
2022/09/18 12:23:23;;;;;;;2.72;0.75;;;;;;;23.11;37.26;100564.63;5037605;28;20052;-78
2022/09/18 12:26:27;;;;;;;2.10;0.50;;;;;;;22.95;36.81;100563.13;5033674;28;20408;-77
2022/09/18 12:29:40;;;;;;;2.30;0.60;;;;;;;23.07;36.62;100553.53;5028002;28;20531;-77
2022/09/18 12:33:02;;;;;;;3.03;0.85;;;;;;;23.22;36.25;100557.03;5027548;28;20044;-76
2022/09/18 12:35:52;;;;;;;1.00;0.50;;;;;;;23.16;36.50;100555.88;5037261;28;20112;-78
2022/09/18 12:38:46;;;;;;;1.20;0.63;;;;;;;23.13;36.19;100551.94;5034567;28;20048;-77
2022/09/18 12:41:36;;;;;;;0.70;0.40;;;;;;;23.11;35.86;100548.00;5038463;28;20052;-77
2022/09/18 12:44:21;;;;;;;2.45;0.43;;;;;;;23.21;35.28;100555.47;5033791;28;20048;-78
2022/09/18 12:47:15;;;;;;;1.60;0.45;;;;;;;23.03;34.35;100541.66;5034980;28;20211;-78
2022/09/18 12:50:00;;;;;;;0.93;0.38;;;;;;;23.29;35.27;100548.66;5033213;28;20052;-77
2022/09/18 12:52:47;;;;;;;5.70;0.73;;;;;;;23.19;34.89;100543.97;5033591;28;20052;-76
2022/09/18 12:55:56;;;;;;;4.82;0.93;;;;;;;23.27;35.58;100534.41;5032949;28;20045;-78
2022/09/18 12:59:02;;;;;;;1.10;0.60;;;;;;;23.44;34.83;100537.06;5015737;28;20044;-76
2022/09/18 13:02:06;;;;;;;3.90;1.13;;;;;;;23.43;34.35;100531.91;5013198;28;20064;-76
2022/09/18 13:04:56;;;;;;;2.88;1.40;;;;;;;23.48;33.27;100520.41;5013511;28;20065;-77
2022/09/18 13:07:54;;;;;;;0.95;0.43;;;;;;;23.81;32.35;100514.22;5029324;28;20052;-77
2022/09/18 13:10:45;;;;;;;1.83;0.80;;;;;;;23.88;33.75;100516.91;5036974;28;20062;-77
2022/09/18 13:13:45;;;;;;;1.80;0.63;;;;;;;23.83;31.99;100514.56;5031393;28;20045;-78
2022/09/18 13:16:45;;;;;;;0.50;0.50;;;;;;;23.74;34.14;100503.16;5033837;28;20040;-77
2022/09/18 13:19:48;;;;;;;3.42;1.10;;;;;;;23.66;33.20;100504.44;5037541;28;20044;-78
2022/09/18 13:22:37;;;;;;;1.70;0.98;;;;;;;23.83;29.52;100500.69;5031406;28;20048;-78
2022/09/18 13:25:24;;;;;;;0.82;0.50;;;;;;;23.95;32.60;100498.63;5025354;28;20049;-78
2022/09/18 13:28:15;;;;;;;2.22;0.47;;;;;;;23.77;33.54;100499.56;5031185;28;20053;-79
2022/09/18 13:31:19;;;;;;;0.45;0.40;;;;;;;23.82;32.65;100498.34;5035384;28;20060;-79